createdAt,value
2019-05-19T00:01:34.046Z,100327.34
2019-05-19T00:04:02.714Z,100324.45
2019-05-19T00:06:31.440Z,100326.17
2019-05-19T00:09:00.094Z,100328.56
2019-05-19T00:11:30.179Z,100334.84
2019-05-19T00:13:58.947Z,100340.80
2019-05-19T00:16:27.650Z,100340.80
2019-05-19T00:18:56.405Z,100339.61
2019-05-19T00:21:25.204Z,100335.20
2019-05-19T00:23:53.882Z,100332.98
2019-05-19T00:26:22.595Z,100338.08
2019-05-19T00:28:51.397Z,100336.39
2019-05-19T00:31:20.096Z,100339.33
2019-05-19T00:33:48.837Z,100331.33
2019-05-19T00:36:19.594Z,100336.75
2019-05-19T00:38:48.070Z,100333.70
2019-05-19T00:41:16.777Z,100333.88
2019-05-19T00:43:45.473Z,100333.88
2019-05-19T00:46:14.190Z,100336.93
2019-05-19T00:48:42.861Z,100327.22
2019-05-19T00:51:11.927Z,100332.98
2019-05-19T00:53:40.673Z,100329.89
2019-05-19T00:56:09.491Z,100325.47
2019-05-19T00:58:38.460Z,100331.25
2019-05-19T01:01:07.202Z,100328.37
2019-05-19T01:03:35.825Z,100329.58
2019-05-19T01:06:06.173Z,100336.20
2019-05-19T01:08:34.846Z,100330.91
2019-05-19T01:11:03.637Z,100334.36
2019-05-19T01:13:32.364Z,100327.85
2019-05-19T01:16:01.060Z,100322.91
2019-05-19T01:18:29.719Z,100324.79
2019-05-19T01:20:58.490Z,100324.80
2019-05-19T01:23:27.241Z,100326.86
2019-05-19T01:25:55.940Z,100327.53
2019-05-19T01:28:24.687Z,100331.45
2019-05-19T01:30:53.395Z,100335.03
2019-05-19T01:33:22.197Z,100331.61
2019-05-19T01:35:50.937Z,100326.02
2019-05-19T01:38:19.661Z,100328.37
2019-05-19T01:40:48.378Z,100320.87
2019-05-19T01:43:17.074Z,100320.20
2019-05-19T01:45:45.839Z,100317.47
2019-05-19T01:48:14.537Z,100316.43
2019-05-19T01:50:43.241Z,100315.23
2019-05-19T01:53:11.945Z,100311.83
2019-05-19T01:55:40.755Z,100322.72
2019-05-19T01:58:09.482Z,100317.64
2019-05-19T02:00:38.144Z,100310.45
2019-05-19T02:03:06.851Z,100309.62
2019-05-19T02:05:35.537Z,100303.14
2019-05-19T02:08:04.239Z,100302.45
2019-05-19T02:10:32.984Z,100303.34
2019-05-19T02:13:04.901Z,100289.53
2019-05-19T02:15:32.197Z,100294.14
2019-05-19T02:18:00.917Z,100291.75
2019-05-19T02:20:33.034Z,100291.89
2019-05-19T02:23:00.038Z,100291.73
2019-05-19T02:25:28.775Z,100294.97
2019-05-19T02:27:57.485Z,100295.70
2019-05-19T02:30:26.150Z,100293.88
2019-05-19T02:32:54.871Z,100289.06
2019-05-19T02:35:23.780Z,100288.60
2019-05-19T02:37:52.832Z,100289.80
2019-05-19T02:40:21.979Z,100297.13
2019-05-19T02:42:53.169Z,100307.84
2019-05-19T02:45:23.328Z,100302.89
2019-05-19T02:47:53.512Z,100300.34
2019-05-19T02:50:23.012Z,100300.34
2019-05-19T02:52:52.692Z,100305.28
2019-05-19T02:55:21.765Z,100305.45
2019-05-19T02:57:51.741Z,100301.52
2019-05-19T03:00:23.579Z,100298.64
2019-05-19T03:02:52.352Z,100301.70
2019-05-19T03:05:21.123Z,100305.31
2019-05-19T03:07:49.826Z,100317.38
2019-05-19T03:10:18.610Z,100317.19
2019-05-19T03:12:47.355Z,100308.84
2019-05-19T03:15:16.122Z,100315.48
2019-05-19T03:17:44.821Z,100320.77
2019-05-19T03:20:13.598Z,100325.37
2019-05-19T03:22:42.303Z,100322.66
2019-05-19T03:25:11.121Z,100337.97
2019-05-19T03:27:39.823Z,100332.36
2019-05-19T03:30:26.882Z,100326.23
2019-05-19T03:32:57.257Z,100340.00
2019-05-19T03:35:26.071Z,100333.19
2019-05-19T03:37:54.843Z,100333.54
2019-05-19T03:40:23.638Z,100334.04
2019-05-19T03:42:52.546Z,100346.14
2019-05-19T03:45:21.413Z,100347.16
2019-05-19T03:47:50.169Z,100340.88
2019-05-19T03:50:18.992Z,100343.08
2019-05-19T03:52:47.920Z,100345.30
2019-05-19T03:55:16.918Z,100341.20
2019-05-19T03:57:45.606Z,100342.73
2019-05-19T04:00:14.582Z,100345.29
2019-05-19T04:02:43.284Z,100338.14
2019-05-19T04:05:12.131Z,100339.16
2019-05-19T04:07:40.871Z,100348.84
2019-05-19T04:10:10.051Z,100348.00
2019-05-19T04:12:38.787Z,100341.71
2019-05-19T04:15:07.912Z,100337.30
2019-05-19T04:17:36.623Z,100337.11
2019-05-19T04:20:06.863Z,100338.14
2019-05-19T04:22:35.572Z,100351.92
2019-05-19T04:25:04.442Z,100354.80
2019-05-19T04:27:33.139Z,100355.00
2019-05-19T04:30:01.899Z,100348.36
2019-05-19T04:32:30.669Z,100350.55
2019-05-19T04:34:59.415Z,100347.16
2019-05-19T04:37:28.109Z,100354.48
2019-05-19T04:39:56.853Z,100354.47
2019-05-19T04:42:25.534Z,100350.04
2019-05-19T04:44:54.244Z,100354.31
2019-05-19T04:47:22.910Z,100353.95
2019-05-19T04:49:51.698Z,100347.51
2019-05-19T04:52:20.354Z,100361.48
2019-05-19T04:54:49.088Z,100358.23
2019-05-19T04:57:17.870Z,100353.45
2019-05-19T04:59:46.589Z,100351.44
2019-05-19T05:02:15.778Z,100345.98
2019-05-19T05:04:44.589Z,100347.00
2019-05-19T05:07:13.269Z,100348.35
2019-05-19T05:09:41.990Z,100350.06
2019-05-19T05:12:10.728Z,100347.65
2019-05-19T05:14:39.464Z,100345.98
2019-05-19T05:17:08.200Z,100337.80
2019-05-19T05:19:36.902Z,100337.98
2019-05-19T05:22:05.645Z,100338.66
2019-05-19T05:24:34.423Z,100338.14
2019-05-19T05:27:05.856Z,100335.56
2019-05-19T05:29:34.637Z,100337.95
2019-05-19T05:32:03.327Z,100353.11
2019-05-19T05:34:32.224Z,100353.27
2019-05-19T05:37:00.900Z,100354.78
2019-05-19T05:39:29.654Z,100354.43
2019-05-19T05:41:58.405Z,100350.36
2019-05-19T05:44:27.125Z,100369.98
2019-05-19T05:46:55.814Z,100358.72
2019-05-19T05:49:24.518Z,100360.62
2019-05-19T05:51:53.192Z,100353.11
2019-05-19T05:54:22.313Z,100349.00
2019-05-19T05:56:51.049Z,100352.92
2019-05-19T05:59:19.838Z,100354.12
2019-05-19T06:01:48.606Z,100351.36
2019-05-19T06:04:17.386Z,100353.22
2019-05-19T06:06:46.059Z,100350.77
2019-05-19T06:09:14.829Z,100340.73
2019-05-19T06:11:43.503Z,100333.98
2019-05-19T06:14:12.211Z,100341.38
2019-05-19T06:16:40.952Z,100337.23
2019-05-19T06:19:09.679Z,100345.59
2019-05-19T06:21:38.343Z,100345.07
2019-05-19T06:24:07.059Z,100339.73
2019-05-19T06:26:35.795Z,100340.23
2019-05-19T06:29:04.558Z,100349.86
2019-05-19T06:31:33.334Z,100350.45
2019-05-19T06:34:02.075Z,100353.98
2019-05-19T06:36:30.936Z,100350.84
2019-05-19T06:38:59.665Z,100359.88
2019-05-19T06:41:28.338Z,100353.18
2019-05-19T06:43:57.022Z,100355.92
2019-05-19T06:46:25.711Z,100352.30
2019-05-19T06:48:54.493Z,100346.14
2019-05-19T06:51:23.162Z,100346.38
2019-05-19T06:53:51.928Z,100346.72
2019-05-19T06:56:20.690Z,100346.13
2019-05-19T06:58:49.453Z,100348.02
2019-05-19T07:01:18.199Z,100353.07
2019-05-19T07:03:49.219Z,100354.16
2019-05-19T07:06:18.019Z,100355.31
2019-05-19T07:08:46.810Z,100360.48
2019-05-19T07:11:15.507Z,100360.77
2019-05-19T07:13:44.179Z,100361.92
2019-05-19T07:16:12.885Z,100362.11
2019-05-19T07:18:41.560Z,100360.13
2019-05-19T07:21:10.405Z,100364.67
2019-05-19T07:23:39.146Z,100362.94
2019-05-19T07:26:07.936Z,100362.51
2019-05-19T07:28:36.612Z,100364.70
2019-05-19T07:31:06.372Z,100363.02
2019-05-19T07:33:35.008Z,100370.13
2019-05-19T07:36:03.807Z,100368.41
2019-05-19T07:38:32.504Z,100372.39
2019-05-19T07:41:01.353Z,100383.33
2019-05-19T07:43:30.033Z,100385.48
2019-05-19T07:45:58.814Z,100384.47
2019-05-19T07:48:27.607Z,100384.27
2019-05-19T07:50:56.348Z,100388.39
2019-05-19T07:53:25.071Z,100383.97
2019-05-19T07:55:53.783Z,100385.73
2019-05-19T07:58:22.463Z,100385.22
2019-05-19T08:00:51.346Z,100397.36
2019-05-19T08:03:20.324Z,100400.33
2019-05-19T08:05:49.284Z,100390.17
2019-05-19T08:08:18.030Z,100392.09
2019-05-19T08:10:46.720Z,100394.46
2019-05-19T08:13:15.467Z,100397.30
2019-05-19T08:15:44.090Z,100393.45
2019-05-19T08:18:15.696Z,100379.25
2019-05-19T08:20:44.433Z,100382.64
2019-05-19T08:23:13.106Z,100386.39
2019-05-19T08:25:41.901Z,100386.77
2019-05-19T08:28:10.843Z,100383.89
2019-05-19T08:30:39.674Z,100382.60
2019-05-19T08:33:11.390Z,100386.16
2019-05-19T08:35:40.230Z,100385.52
2019-05-19T08:38:08.994Z,100389.02
2019-05-19T08:40:37.740Z,100388.72
2019-05-19T08:43:06.545Z,100389.27
2019-05-19T08:45:35.232Z,100390.20
2019-05-19T08:48:03.988Z,100392.54
2019-05-19T08:50:32.735Z,100392.98
2019-05-19T08:53:01.467Z,100393.45
2019-05-19T08:55:30.219Z,100390.03
2019-05-19T08:57:58.997Z,100388.27
2019-05-19T09:00:27.883Z,100385.60
2019-05-19T09:02:56.584Z,100389.87
2019-05-19T09:05:25.284Z,100391.14
2019-05-19T09:07:54.003Z,100377.56
2019-05-19T09:10:22.815Z,100382.84
2019-05-19T09:12:51.616Z,100369.56
2019-05-19T09:15:20.445Z,100375.46
2019-05-19T09:17:49.196Z,100377.12
2019-05-19T09:20:18.128Z,100380.24
2019-05-19T09:22:46.761Z,100378.03
2019-05-19T09:25:15.970Z,100373.84
2019-05-19T09:27:44.772Z,100373.14
2019-05-19T09:30:14.048Z,100372.67
2019-05-19T09:32:45.841Z,100371.95
2019-05-19T09:35:16.239Z,100371.97
2019-05-19T09:37:44.994Z,100372.41
2019-05-19T09:40:14.571Z,100375.58
2019-05-19T09:42:43.352Z,100375.22
2019-05-19T09:45:12.491Z,100368.72
2019-05-19T09:47:41.400Z,100369.05
2019-05-19T09:50:10.500Z,100366.83
2019-05-19T09:52:39.305Z,100366.06
2019-05-19T09:55:09.293Z,100365.46
2019-05-19T09:57:38.187Z,100359.59
2019-05-19T10:00:09.111Z,100363.77
2019-05-19T10:02:37.867Z,100357.02
2019-05-19T10:05:07.052Z,100354.17
2019-05-19T10:07:35.839Z,100352.59
2019-05-19T10:10:13.782Z,100350.14
2019-05-19T10:12:42.552Z,100343.91
2019-05-19T10:15:11.733Z,100345.63
2019-05-19T10:17:40.459Z,100350.89
2019-05-19T10:20:11.034Z,100348.70
2019-05-19T10:22:39.760Z,100343.03
2019-05-19T10:25:21.581Z,100353.91
2019-05-19T10:27:40.116Z,100347.45
2019-05-19T10:30:09.792Z,100344.48
2019-05-19T10:32:43.972Z,100357.92
2019-05-19T10:35:13.141Z,100344.78
2019-05-19T10:37:41.810Z,100351.66
2019-05-19T10:40:10.847Z,100350.12
2019-05-19T10:42:39.641Z,100340.02
2019-05-19T10:45:09.942Z,100341.61
2019-05-19T10:47:38.711Z,100345.56
2019-05-19T10:50:07.802Z,100338.72
2019-05-19T10:52:36.497Z,100335.68
2019-05-19T10:55:06.118Z,100342.34
2019-05-19T10:57:34.790Z,100341.65
2019-05-19T11:00:04.159Z,100334.80
2019-05-19T11:02:32.933Z,100330.09
2019-05-19T11:05:01.752Z,100327.91
2019-05-19T11:07:32.915Z,100328.41
2019-05-19T11:10:01.810Z,100327.98
2019-05-19T11:12:30.490Z,100329.24
2019-05-19T11:14:59.185Z,100321.87
2019-05-19T11:17:27.984Z,100324.92
2019-05-19T11:19:56.646Z,100318.55
2019-05-19T11:22:25.342Z,100317.59
2019-05-19T11:24:54.076Z,100315.69
2019-05-19T11:27:22.840Z,100305.17
2019-05-19T11:29:51.545Z,100305.17
2019-05-19T11:32:20.322Z,100314.48
2019-05-19T11:34:49.029Z,100302.95
2019-05-19T11:37:17.736Z,100304.84
2019-05-19T11:39:46.466Z,100304.84
2019-05-19T11:42:15.205Z,100307.91
2019-05-19T11:44:43.891Z,100290.72
2019-05-19T11:47:12.607Z,100287.01
2019-05-19T11:49:41.340Z,100288.75
2019-05-19T11:52:10.107Z,100290.58
2019-05-19T11:54:38.912Z,100286.88
2019-05-19T11:57:07.606Z,100286.73
2019-05-19T11:59:36.332Z,100278.28
2019-05-19T12:02:06.499Z,100286.80
2019-05-19T12:04:35.252Z,100283.48
2019-05-19T12:07:03.935Z,100274.72
2019-05-19T12:09:33.289Z,100272.34
2019-05-19T12:12:02.213Z,100274.37
2019-05-19T12:14:30.978Z,100266.33
2019-05-19T12:16:59.805Z,100268.44
2019-05-19T12:19:28.552Z,100268.25
2019-05-19T12:21:57.239Z,100267.15
2019-05-19T12:24:25.948Z,100268.59
2019-05-19T12:26:54.669Z,100260.66
2019-05-19T12:29:23.467Z,100261.25
2019-05-19T12:31:52.200Z,100254.05
2019-05-19T12:34:21.039Z,100259.08
2019-05-19T12:36:49.796Z,100259.98
2019-05-19T12:39:18.539Z,100259.16
2019-05-19T12:41:47.197Z,100248.36
2019-05-19T12:44:15.943Z,100249.16
2019-05-19T12:46:44.735Z,100252.84
2019-05-19T12:49:16.422Z,100252.62
2019-05-19T12:51:45.178Z,100256.75
2019-05-19T12:54:14.450Z,100252.80
2019-05-19T12:56:43.163Z,100251.72
2019-05-19T12:59:11.932Z,100252.96
2019-05-19T13:01:40.709Z,100249.47
2019-05-19T13:04:09.382Z,100245.11
2019-05-19T13:06:38.137Z,100249.70
2019-05-19T13:09:07.652Z,100239.38
2019-05-19T13:11:36.433Z,100239.30
2019-05-19T13:14:06.812Z,100234.75
2019-05-19T13:16:35.670Z,100227.70
2019-05-19T13:19:05.996Z,100223.84
2019-05-19T13:21:36.677Z,100228.72
2019-05-19T13:24:05.095Z,100227.42
2019-05-19T13:26:33.876Z,100229.06
2019-05-19T13:29:02.627Z,100229.78
2019-05-19T13:31:31.398Z,100228.86
2019-05-19T13:34:00.338Z,100230.03
2019-05-19T13:36:29.098Z,100223.40
2019-05-19T13:38:57.875Z,100218.52
2019-05-19T13:41:26.560Z,100218.42
2019-05-19T13:43:55.371Z,100217.86
2019-05-19T13:46:24.121Z,100208.75
2019-05-19T13:48:52.878Z,100217.64
2019-05-19T13:51:21.603Z,100202.87
2019-05-19T13:53:50.270Z,100200.69
2019-05-19T13:56:19.000Z,100200.77
2019-05-19T13:58:47.793Z,100200.26
2019-05-19T14:01:28.012Z,100202.09
2019-05-19T14:03:46.975Z,100201.95
2019-05-19T14:06:15.781Z,100212.72
2019-05-19T14:08:44.544Z,100202.56
2019-05-19T14:11:16.136Z,100202.34
2019-05-19T14:13:44.937Z,100206.86
2019-05-19T14:16:13.712Z,100203.13
2019-05-19T14:18:42.384Z,100201.97
2019-05-19T14:21:11.111Z,100194.62
2019-05-19T14:23:39.793Z,100197.74
2019-05-19T14:26:08.475Z,100200.11
2019-05-19T14:28:37.228Z,100189.39
2019-05-19T14:31:06.457Z,100195.84
2019-05-19T14:33:35.196Z,100193.77
2019-05-19T14:36:03.929Z,100195.83
2019-05-19T14:38:32.612Z,100195.64
2019-05-19T14:41:01.269Z,100194.29
2019-05-19T14:43:31.450Z,100203.71
2019-05-19T14:46:00.246Z,100197.02
2019-05-19T14:48:28.982Z,100194.09
2019-05-19T14:50:57.773Z,100188.12
2019-05-19T14:53:26.531Z,100191.98
2019-05-19T14:55:55.340Z,100198.23
2019-05-19T14:58:24.089Z,100189.88
2019-05-19T15:00:52.878Z,100185.37
2019-05-19T15:03:21.648Z,100188.55
2019-05-19T15:05:50.427Z,100186.25
2019-05-19T15:08:19.230Z,100184.03
2019-05-19T15:10:47.954Z,100186.56
2019-05-19T15:13:16.708Z,100186.66
2019-05-19T15:15:45.494Z,100184.09
2019-05-19T15:18:15.208Z,100186.25
2019-05-19T15:20:44.145Z,100187.41
2019-05-19T15:23:12.872Z,100187.28
2019-05-19T15:25:41.644Z,100184.58
2019-05-19T15:28:10.469Z,100194.21
2019-05-19T15:30:39.230Z,100185.63
2019-05-19T15:33:07.982Z,100188.12
2019-05-19T15:35:36.811Z,100181.44
2019-05-19T15:38:05.574Z,100183.66
2019-05-19T15:40:34.351Z,100182.86
2019-05-19T15:43:03.065Z,100175.67
2019-05-19T15:45:31.854Z,100167.83
2019-05-19T15:48:00.659Z,100162.84
2019-05-19T15:50:29.422Z,100158.72
2019-05-19T15:52:58.102Z,100165.09
2019-05-19T15:55:26.929Z,100158.19
2019-05-19T15:57:55.728Z,100159.98
2019-05-19T16:00:24.469Z,100157.00
2019-05-19T16:02:53.150Z,100155.20
2019-05-19T16:05:22.048Z,100152.67
2019-05-19T16:07:50.800Z,100149.22
2019-05-19T16:10:19.602Z,100150.87
2019-05-19T16:12:49.848Z,100144.24
2019-05-19T16:15:21.092Z,100144.21
2019-05-19T16:17:50.504Z,100151.53
2019-05-19T16:20:19.365Z,100143.98
2019-05-19T16:22:48.096Z,100143.41
2019-05-19T16:25:16.915Z,100146.38
2019-05-19T16:27:45.742Z,100134.64
2019-05-19T16:30:14.985Z,100151.27
2019-05-19T16:32:43.663Z,100143.41
2019-05-19T16:35:12.890Z,100142.22
2019-05-19T16:37:41.589Z,100151.78
2019-05-19T16:40:10.841Z,100144.92
2019-05-19T16:42:39.566Z,100142.59
2019-05-19T16:45:08.974Z,100144.86
2019-05-19T16:47:37.723Z,100134.77
2019-05-19T16:50:08.140Z,100137.37
2019-05-19T16:52:36.893Z,100131.24
2019-05-19T16:55:23.584Z,100129.41
2019-05-19T16:57:52.364Z,100133.39
2019-05-19T17:00:21.523Z,100121.58
2019-05-19T17:02:50.280Z,100132.78
2019-05-19T17:05:19.135Z,100129.88
2019-05-19T17:07:47.816Z,100125.51
2019-05-19T17:10:18.131Z,100126.07
2019-05-19T17:12:46.794Z,100123.92
2019-05-19T17:15:16.684Z,100123.05
2019-05-19T17:17:45.474Z,100123.62
2019-05-19T17:20:16.058Z,100121.09
2019-05-19T17:22:44.712Z,100123.73
2019-05-19T17:25:13.994Z,100123.51
2019-05-19T17:27:42.804Z,100122.35
2019-05-19T17:30:13.332Z,100122.95
2019-05-19T17:32:42.551Z,100117.53
2019-05-19T17:35:12.432Z,100119.14
2019-05-19T17:37:41.958Z,100117.14
2019-05-19T17:40:12.516Z,100117.56
2019-05-19T17:42:41.907Z,100121.37
2019-05-19T17:45:11.095Z,100121.50
2019-05-19T17:47:39.828Z,100117.63
2019-05-19T17:50:09.552Z,100119.75
2019-05-19T17:52:38.310Z,100117.84
2019-05-19T17:55:08.690Z,100116.47
2019-05-19T17:57:38.499Z,100114.89
2019-05-19T18:00:10.226Z,100116.48
2019-05-19T18:02:39.166Z,100114.17
2019-05-19T18:05:08.081Z,100119.38
2019-05-19T18:07:36.835Z,100115.05
2019-05-19T18:10:08.826Z,100124.69
2019-05-19T18:12:37.538Z,100121.09
2019-05-19T18:15:08.469Z,100121.97
2019-05-19T18:17:37.200Z,100128.61
2019-05-19T18:20:07.177Z,100128.31
2019-05-19T18:22:35.894Z,100128.20
2019-05-19T18:25:05.947Z,100123.02
2019-05-19T18:27:36.008Z,100116.36
2019-05-19T18:30:05.619Z,100130.69
2019-05-19T18:32:34.350Z,100129.78
2019-05-19T18:35:03.151Z,100136.03
2019-05-19T18:37:31.999Z,100130.77
2019-05-19T18:40:00.778Z,100136.53
2019-05-19T18:42:29.544Z,100136.53
2019-05-19T18:44:58.319Z,100143.64
2019-05-19T18:47:28.689Z,100147.51
2019-05-19T18:49:57.596Z,100143.03
2019-05-19T18:52:26.354Z,100138.54
2019-05-19T18:54:55.147Z,100140.13
2019-05-19T18:57:23.912Z,100142.83
2019-05-19T18:59:52.726Z,100149.48
2019-05-19T19:02:21.654Z,100148.93
2019-05-19T19:04:50.403Z,100153.83
2019-05-19T19:07:19.164Z,100158.16
2019-05-19T19:09:47.899Z,100164.67
2019-05-19T19:12:16.639Z,100166.75
2019-05-19T19:14:46.671Z,100165.91
2019-05-19T19:17:15.415Z,100168.31
2019-05-19T19:19:44.226Z,100168.64
2019-05-19T19:22:12.981Z,100178.97
2019-05-19T19:24:41.777Z,100174.41
2019-05-19T19:27:10.510Z,100185.78
2019-05-19T19:29:39.288Z,100192.17
2019-05-19T19:32:08.085Z,100193.70
2019-05-19T19:34:36.835Z,100188.52
2019-05-19T19:37:05.504Z,100192.05
2019-05-19T19:39:34.296Z,100189.80
2019-05-19T19:42:02.992Z,100187.30
2019-05-19T19:44:31.756Z,100187.65
2019-05-19T19:47:00.552Z,100192.23
2019-05-19T19:49:29.302Z,100192.92
2019-05-19T19:51:58.080Z,100192.39
2019-05-19T19:54:26.811Z,100191.05
2019-05-19T19:56:55.561Z,100190.00
2019-05-19T19:59:24.309Z,100195.41
2019-05-19T20:01:53.039Z,100198.70
2019-05-19T20:04:21.807Z,100195.66
2019-05-19T20:06:50.576Z,100208.50
2019-05-19T20:09:21.311Z,100204.47
2019-05-19T20:11:54.832Z,100205.55
2019-05-19T20:14:23.677Z,100213.11
2019-05-19T20:16:52.458Z,100215.68
2019-05-19T20:19:23.868Z,100220.91
2019-05-19T20:21:52.583Z,100220.98
2019-05-19T20:24:21.346Z,100222.94
2019-05-19T20:26:50.079Z,100225.48
2019-05-19T20:29:18.883Z,100227.51
2019-05-19T20:31:50.391Z,100225.30
2019-05-19T20:34:19.134Z,100221.70
2019-05-19T20:36:49.090Z,100223.36
2019-05-19T20:39:17.818Z,100219.67
2019-05-19T20:41:46.574Z,100221.70
2019-05-19T20:44:15.342Z,100218.12
2019-05-19T20:46:44.115Z,100219.02
2019-05-19T20:49:12.917Z,100214.86
2019-05-19T20:51:41.651Z,100216.57
2019-05-19T20:54:10.412Z,100212.77
2019-05-19T20:56:39.180Z,100219.60
2019-05-19T20:59:07.963Z,100214.66
2019-05-19T21:01:36.850Z,100214.69
2019-05-19T21:04:05.665Z,100214.25
2019-05-19T21:06:34.377Z,100211.30
2019-05-19T21:09:04.147Z,100207.83
2019-05-19T21:11:32.876Z,100213.77
2019-05-19T21:14:01.547Z,100210.37
2019-05-19T21:16:30.318Z,100206.88
2019-05-19T21:19:00.675Z,100212.72
2019-05-19T21:21:29.396Z,100208.24
2019-05-19T21:23:58.134Z,100205.91
2019-05-19T21:26:26.944Z,100211.60
2019-05-19T21:28:55.599Z,100214.79
2019-05-19T21:31:24.341Z,100212.41
2019-05-19T21:33:53.051Z,100216.02
2019-05-19T21:36:21.828Z,100221.38
2019-05-19T21:38:50.625Z,100213.48
2019-05-19T21:41:19.383Z,100218.06
2019-05-19T21:43:48.068Z,100220.66
2019-05-19T21:46:16.805Z,100218.30
2019-05-19T21:48:45.549Z,100223.75
2019-05-19T21:51:14.297Z,100215.39
2019-05-19T21:53:43.072Z,100213.80
2019-05-19T21:56:11.814Z,100220.71
2019-05-19T21:58:40.572Z,100223.05
2019-05-19T22:01:22.153Z,100224.50
2019-05-19T22:03:39.971Z,100233.58
2019-05-19T22:06:08.708Z,100230.75
2019-05-19T22:08:37.448Z,100236.56
2019-05-19T22:11:06.216Z,100237.66
2019-05-19T22:13:35.031Z,100235.80
2019-05-19T22:16:12.445Z,100237.52
2019-05-19T22:18:34.319Z,100236.38
2019-05-19T22:21:03.187Z,100230.42
2019-05-19T22:23:31.931Z,100229.89
2019-05-19T22:26:00.612Z,100225.62
2019-05-19T22:28:29.420Z,100228.08
2019-05-19T22:30:58.145Z,100226.54
2019-05-19T22:33:26.914Z,100231.05
2019-05-19T22:35:56.109Z,100226.97
2019-05-19T22:38:24.861Z,100233.36
2019-05-19T22:40:53.576Z,100229.05
2019-05-19T22:43:22.313Z,100229.78
2019-05-19T22:45:51.097Z,100229.27
2019-05-19T22:48:19.895Z,100221.63
2019-05-19T22:50:48.648Z,100217.78
2019-05-19T22:53:17.297Z,100216.13
2019-05-19T22:55:46.114Z,100221.23
2019-05-19T22:58:14.959Z,100212.20
2019-05-19T23:00:43.717Z,100211.68
2019-05-19T23:03:12.483Z,100216.23
2019-05-19T23:05:41.212Z,100209.36
2019-05-19T23:08:09.940Z,100207.41
2019-05-19T23:10:38.640Z,100205.09
2019-05-19T23:13:08.358Z,100208.03
2019-05-19T23:15:37.209Z,100198.77
2019-05-19T23:18:05.955Z,100203.91
2019-05-19T23:20:34.679Z,100207.33
2019-05-19T23:23:03.354Z,100202.11
2019-05-19T23:25:32.102Z,100209.85
2019-05-19T23:28:00.805Z,100202.56
2019-05-19T23:30:29.563Z,100208.48
2019-05-19T23:32:58.269Z,100205.22
2019-05-19T23:35:27.113Z,100200.57
2019-05-19T23:37:55.785Z,100196.80
2019-05-19T23:40:24.574Z,100190.33
2019-05-19T23:42:53.427Z,100190.25
2019-05-19T23:45:22.210Z,100188.50
2019-05-19T23:47:50.938Z,100187.60
2019-05-19T23:50:20.288Z,100185.33
2019-05-19T23:52:48.964Z,100183.80
2019-05-19T23:55:17.774Z,100191.42
2019-05-19T23:57:46.522Z,100184.66
